createdAt,value
2022-11-29T00:16:57.423Z,1016.42
2022-11-29T00:45:45.500Z,1016.37
2022-11-29T01:14:12.940Z,1016.49
2022-11-29T01:42:29.425Z,1016.49
2022-11-29T02:10:32.586Z,1016.5
2022-11-29T02:38:55.794Z,1016.28
2022-11-29T03:07:06.380Z,1016.45
2022-11-29T03:36:14.938Z,1016.67
2022-11-29T04:05:22.877Z,1016.78
2022-11-29T04:34:20.257Z,1017.04
2022-11-29T05:02:36.495Z,1017.29
2022-11-29T05:31:19.189Z,1017.41
2022-11-29T06:00:07.836Z,1017.54
2022-11-29T06:28:54.979Z,1017.69
2022-11-29T06:57:48.960Z,1018.02
2022-11-29T07:25:59.024Z,1018.2
2022-11-29T07:54:51.549Z,1018.25
2022-11-29T08:23:47.014Z,1018.51
2022-11-29T08:52:37.450Z,1018.69
2022-11-29T09:21:26.330Z,1018.94
2022-11-29T09:50:17.081Z,1019.22
2022-11-29T10:19:12.789Z,1019.32
2022-11-29T10:47:38.918Z,1019.25
2022-11-29T11:16:00.728Z,1019.12
2022-11-29T11:44:48.244Z,1019.17
2022-11-29T12:12:40.533Z,1019.28
2022-11-29T12:41:04.586Z,1019.42
2022-11-29T13:09:46.719Z,1019.53
2022-11-29T13:38:19.557Z,1019.63
2022-11-29T14:07:10.665Z,1019.7
2022-11-29T14:35:59.485Z,1019.84
2022-11-29T15:04:58.279Z,1020.01
2022-11-29T15:33:50.661Z,1020.11
2022-11-29T16:02:40.135Z,1020.34
2022-11-29T16:31:30.276Z,1020.41
2022-11-29T17:00:13.635Z,1020.5
2022-11-29T17:28:29.616Z,1020.58
2022-11-29T17:56:42.865Z,1020.77
2022-11-29T18:25:40.825Z,1020.95
2022-11-29T18:54:07.953Z,1020.93
2022-11-29T19:23:07.784Z,1021.05
2022-11-29T19:52:05.365Z,1021.15
2022-11-29T20:21:03.547Z,1021.22
2022-11-29T20:50:03.579Z,1021.28
2022-11-29T21:19:00.478Z,1021.44
2022-11-29T21:47:53.411Z,1021.49
2022-11-29T22:16:08.542Z,1021.5
2022-11-29T22:44:28.047Z,1021.47
2022-11-29T23:12:42.870Z,1021.48
2022-11-29T23:40:59.435Z,1021.5
